Kirishima Maru No.5 — JD2506 — position and weather

sailwx.info

Track history (hours):
 
Tides and Currents Weather Stations Pressure Air Temp Water Temp Dewpoint Dewpoint Depression Visibility Wind Speed Wind Dir Waves Ship Positions

Kirishima Maru No.5

Last reported at 2015-Feb-21 07:32 UTC. Time now 2015-Mar-06 02:48 UTC.
Position N 35°11' E 139°46'.
Warning: this ship's position is 12 days out of date.

Length 105 m; draft 5.3 m.

Type: Tanker. MMSI: 431000338.

Date/timePositionNaut miles runAvg speedWind from/ knotsBaromVisibWave heightAir tempDewpointWater temp
2015-Feb-21 07:32N 35°11' E 139°46'1212.7
2015-Feb-21 06:33N 35°23' E 139°42'9 1.2
2015-Feb-20 23:31N 35°31' E 139°46'5 4.8
2015-Feb-20 22:33N 35°27' E 139°43'3 3.4
2015-Feb-20 21:33N 35°24' E 139°45'0 0.0
2015-Feb-20 20:33N 35°24' E 139°45'0 0.1
2015-Feb-20 19:33N 35°24' E 139°45'0 0.0
2015-Feb-20 18:33N 35°24' E 139°45'0 0.0
2015-Feb-20 17:33N 35°24' E 139°45'0 0.0
2015-Feb-20 16:30N 35°24' E 139°45'0 0.0
2015-Feb-20 15:24N 35°24' E 139°45'0 0.0
2015-Feb-20 14:33N 35°24' E 139°45'0 0.0
2015-Feb-20 13:30N 35°24' E 139°45'0 0.0
2015-Feb-20 12:33N 35°24' E 139°45'0 0.0
2015-Feb-20 11:33N 35°24' E 139°45'0 0.0
2015-Feb-20 10:33N 35°24' E 139°45'0 0.0
2015-Feb-20 09:33N 35°24' E 139°45'0 0.0
2015-Feb-20 08:33N 35°24' E 139°45'0 0.0
2015-Feb-20 07:27N 35°24' E 139°45'0 0.0
2015-Feb-20 06:27N 35°24' E 139°45'0 0.0
2015-Feb-20 05:33N 35°24' E 139°45'0 0.0
2015-Feb-20 04:33N 35°24' E 139°45'0 0.0
2015-Feb-20 03:33N 35°24' E 139°45'0 0.0
2015-Feb-20 02:33N 35°24' E 139°45'0 0.0
2015-Feb-20 01:27N 35°24' E 139°45'0 0.0
2015-Feb-20 00:33N 35°24' E 139°45'0 0.0
2015-Feb-19 23:30N 35°24' E 139°45'0 0.0
2015-Feb-19 22:33N 35°24' E 139°45'0 0.0
2015-Feb-19 21:33N 35°24' E 139°45'0 0.0
2015-Feb-19 20:33N 35°24' E 139°45'0 0.1
2015-Feb-19 19:30N 35°24' E 139°45'0 0.1
2015-Feb-19 18:30N 35°24' E 139°45'0 0.0
2015-Feb-19 17:33N 35°24' E 139°45'0 0.1
2015-Feb-19 16:33N 35°24' E 139°45'0 0.0
2015-Feb-19 15:33N 35°24' E 139°45'0 0.0
2015-Feb-19 14:33N 35°24' E 139°45'0 0.0
2015-Feb-19 13:33N 35°24' E 139°45'0 0.0
2015-Feb-19 12:33N 35°24' E 139°45'0 0.0
2015-Feb-19 11:33N 35°24' E 139°45'0 0.0
2015-Feb-19 10:33N 35°24' E 139°45'0 0.0
2015-Feb-19 09:33N 35°24' E 139°45'0 0.0
2015-Feb-19 08:33N 35°24' E 139°45'2 1.6
2015-Feb-19 07:33N 35°22' E 139°45'1212.0
2015-Feb-19 06:33N 35°11' E 139°47'1414.0
2015-Feb-19 05:33N 34°57' E 139°44'  
2015-Feb-14 05:16N 34°56' E 139°44'1014.3
2015-Feb-14 04:34N 35°06' E 139°44'1312.9
2015-Feb-14 03:33N 35°19' E 139°43'4 4.3
2015-Feb-14 02:33N 35°23' E 139°45'0 0.0
2015-Feb-14 01:33N 35°23' E 139°45'0 0.0
2015-Feb-14 00:33N 35°23' E 139°45'0 0.0
2015-Feb-13 23:33N 35°23' E 139°45'0 0.0
2015-Feb-13 22:33N 35°23' E 139°45'0 0.0
2015-Feb-13 21:33N 35°23' E 139°45'0 0.1
2015-Feb-13 20:33N 35°23' E 139°45'0 0.0
2015-Feb-13 19:33N 35°23' E 139°45'0 0.0
2015-Feb-13 18:30N 35°23' E 139°45'0 0.0
2015-Feb-13 17:30N 35°23' E 139°45'0 0.0
2015-Feb-13 16:33N 35°23' E 139°45'0 0.0
2015-Feb-13 15:33N 35°23' E 139°45'0 0.0
2015-Feb-13 14:33N 35°23' E 139°45'0 0.3
2015-Feb-13 13:33N 35°23' E 139°45'8 7.6
2015-Feb-13 12:33N 35°31' E 139°46'0 0.1
2015-Feb-13 05:34N 35°31' E 139°46'4 4.0
2015-Feb-13 04:33N 35°27' E 139°44'7 6.7
2015-Feb-13 03:33N 35°20' E 139°44'1211.8
2015-Feb-13 02:33N 35°09' E 139°46'  
Track history (hours):
 
Tides and Currents Weather Stations Pressure Air Temp Water Temp Dewpoint Dewpoint Depression Visibility Wind Speed Wind Dir Waves Ship Positions

Kirishima Maru No.5

Last reported at 2015-Feb-21 07:32 UTC. Time now 2015-Mar-06 02:48 UTC.
Position N 35°11' E 139°46'.
Warning: this ship's position is 12 days out of date.

Length 105 m; draft 5.3 m.

Type: Tanker. MMSI: 431000338.

Date/timePositionNaut miles runAvg speedWind from/ knotsBaromVisibWave heightAir tempDewpointWater temp
2015-Feb-21 07:32N 35°11' E 139°46'1212.7
2015-Feb-21 06:33N 35°23' E 139°42'9 1.2
2015-Feb-20 23:31N 35°31' E 139°46'5 4.8
2015-Feb-20 22:33N 35°27' E 139°43'3 3.4
2015-Feb-20 21:33N 35°24' E 139°45'0 0.0
2015-Feb-20 20:33N 35°24' E 139°45'0 0.1
2015-Feb-20 19:33N 35°24' E 139°45'0 0.0
2015-Feb-20 18:33N 35°24' E 139°45'0 0.0
2015-Feb-20 17:33N 35°24' E 139°45'0 0.0
2015-Feb-20 16:30N 35°24' E 139°45'0 0.0
2015-Feb-20 15:24N 35°24' E 139°45'0 0.0
2015-Feb-20 14:33N 35°24' E 139°45'0 0.0
2015-Feb-20 13:30N 35°24' E 139°45'0 0.0
2015-Feb-20 12:33N 35°24' E 139°45'0 0.0
2015-Feb-20 11:33N 35°24' E 139°45'0 0.0
2015-Feb-20 10:33N 35°24' E 139°45'0 0.0
2015-Feb-20 09:33N 35°24' E 139°45'0 0.0
2015-Feb-20 08:33N 35°24' E 139°45'0 0.0
2015-Feb-20 07:27N 35°24' E 139°45'0 0.0
2015-Feb-20 06:27N 35°24' E 139°45'0 0.0
2015-Feb-20 05:33N 35°24' E 139°45'0 0.0
2015-Feb-20 04:33N 35°24' E 139°45'0 0.0
2015-Feb-20 03:33N 35°24' E 139°45'0 0.0
2015-Feb-20 02:33N 35°24' E 139°45'0 0.0
2015-Feb-20 01:27N 35°24' E 139°45'0 0.0
2015-Feb-20 00:33N 35°24' E 139°45'0 0.0
2015-Feb-19 23:30N 35°24' E 139°45'0 0.0
2015-Feb-19 22:33N 35°24' E 139°45'0 0.0
2015-Feb-19 21:33N 35°24' E 139°45'0 0.0
2015-Feb-19 20:33N 35°24' E 139°45'0 0.1
2015-Feb-19 19:30N 35°24' E 139°45'0 0.1
2015-Feb-19 18:30N 35°24' E 139°45'0 0.0
2015-Feb-19 17:33N 35°24' E 139°45'0 0.1
2015-Feb-19 16:33N 35°24' E 139°45'0 0.0
2015-Feb-19 15:33N 35°24' E 139°45'0 0.0
2015-Feb-19 14:33N 35°24' E 139°45'0 0.0
2015-Feb-19 13:33N 35°24' E 139°45'0 0.0
2015-Feb-19 12:33N 35°24' E 139°45'0 0.0
2015-Feb-19 11:33N 35°24' E 139°45'0 0.0
2015-Feb-19 10:33N 35°24' E 139°45'0 0.0
2015-Feb-19 09:33N 35°24' E 139°45'0 0.0
2015-Feb-19 08:33N 35°24' E 139°45'2 1.6
2015-Feb-19 07:33N 35°22' E 139°45'1212.0
2015-Feb-19 06:33N 35°11' E 139°47'1414.0
2015-Feb-19 05:33N 34°57' E 139°44'  
2015-Feb-14 05:16N 34°56' E 139°44'1014.3
2015-Feb-14 04:34N 35°06' E 139°44'1312.9
2015-Feb-14 03:33N 35°19' E 139°43'4 4.3
2015-Feb-14 02:33N 35°23' E 139°45'0 0.0
2015-Feb-14 01:33N 35°23' E 139°45'0 0.0
2015-Feb-14 00:33N 35°23' E 139°45'0 0.0
2015-Feb-13 23:33N 35°23' E 139°45'0 0.0
2015-Feb-13 22:33N 35°23' E 139°45'0 0.0
2015-Feb-13 21:33N 35°23' E 139°45'0 0.1
2015-Feb-13 20:33N 35°23' E 139°45'0 0.0
2015-Feb-13 19:33N 35°23' E 139°45'0 0.0
2015-Feb-13 18:30N 35°23' E 139°45'0 0.0
2015-Feb-13 17:30N 35°23' E 139°45'0 0.0
2015-Feb-13 16:33N 35°23' E 139°45'0 0.0
2015-Feb-13 15:33N 35°23' E 139°45'0 0.0
2015-Feb-13 14:33N 35°23' E 139°45'0 0.3
2015-Feb-13 13:33N 35°23' E 139°45'8 7.6
2015-Feb-13 12:33N 35°31' E 139°46'0 0.1
2015-Feb-13 05:34N 35°31' E 139°46'4 4.0
2015-Feb-13 04:33N 35°27' E 139°44'7 6.7
2015-Feb-13 03:33N 35°20' E 139°44'1211.8
2015-Feb-13 02:33N 35°09' E 139°46'  

Dump ship's entire track history